Pierce, Nebraska
Current Conditions -  °F | °C
As of 12:56 PM on Monday 20 Oct 2014 (Local Time) from KOFK Reporting Station
Clear Clear  
Wind Chill: 68°   Ceiling: Unl
Heat Index: 68°   Visibility: 10mi
Dew Point: 35°   Wind: 6mph
Humidity: 30%   Direction: 360°N
Pressure: 30.11"   Gusts: NA
Location:  42.2°N, 97.53°W
Report Text: KOFK 201756Z AUTO 36005KT 10SM CLR 20/02 A3011 RMK AO2 SLP194 T02000017 10206 20039 58003
Loading
Personal Weather Stations






























Interactive Weather Map
Tropical Storm Tracking
New forecast layout! Learn more

10-Day Weather Forecast

Advertisements
Track Severe Weather on mobile